Time;durP1;ratioP1;P1;durP2;ratioP2;P2;SDS_P1;SDS_P2;PMS_P1;PMS_P2;Temp;Humidity;BMP_temperature;BMP_pressure;BME280_temperature;BME280_humidity;BME280_pressure;Samples;Min_cycle;Max_cycle;Signal;HPM_P1;HPM_P2
2023/09/12 00:02:17;;;;;;;8.18;4.10;;;;;;;22.41;73.27;100713.25;5049403;28;20037;-61
2023/09/12 00:04:44;;;;;;;5.68;3.47;;;;;;;22.78;72.13;100722.28;5057604;28;20044;-61
2023/09/12 00:07:12;;;;;;;5.60;3.80;;;;;;;22.73;72.33;100723.50;5051823;28;20056;-66
2023/09/12 00:09:39;;;;;;;6.10;3.80;;;;;;;22.58;73.24;100724.59;5051475;28;20049;-66
2023/09/12 00:12:07;;;;;;;8.65;4.15;;;;;;;22.63;73.50;100726.25;5045475;28;20045;-66
2023/09/12 00:14:35;;;;;;;8.82;3.85;;;;;;;22.17;74.77;100721.16;5029349;28;20049;-61
2023/09/12 00:17:03;;;;;;;7.85;4.35;;;;;;;22.09;76.61;100719.50;5037798;28;20060;-62
2023/09/12 00:19:30;;;;;;;7.47;4.40;;;;;;;22.01;78.06;100717.84;5045439;28;20053;-65
2023/09/12 00:21:57;;;;;;;7.90;4.78;;;;;;;21.92;78.55;100714.56;5053778;28;20049;-64
2023/09/12 00:24:25;;;;;;;7.20;5.18;;;;;;;21.90;78.98;100716.94;5048056;28;20064;-62
2023/09/12 00:26:52;;;;;;;9.25;4.57;;;;;;;21.87;79.68;100714.13;5036980;28;20132;-62
2023/09/12 00:29:20;;;;;;;8.52;4.65;;;;;;;22.07;78.58;100716.25;5036753;28;20064;-61
2023/09/12 00:31:47;;;;;;;7.65;4.50;;;;;;;21.98;78.42;100727.03;5055883;28;20049;-66
2023/09/12 00:34:18;;;;;;;8.73;4.63;;;;;;;21.81;80.02;100724.09;5061551;28;20057;-66
2023/09/12 00:36:45;;;;;;;8.48;4.75;;;;;;;21.72;80.80;100721.59;5052315;28;20423;-61
2023/09/12 00:39:12;;;;;;;8.38;5.43;;;;;;;21.50;82.90;100718.97;5054149;28;20056;-61
2023/09/12 00:41:40;;;;;;;7.68;5.18;;;;;;;21.82;81.47;100720.91;5060597;28;20044;-62
2023/09/12 00:44:07;;;;;;;7.55;5.50;;;;;;;21.76;82.21;100719.63;5052784;28;20049;-65
2023/09/12 00:46:36;;;;;;;8.23;5.05;;;;;;;22.04;80.67;100719.84;5064331;28;20059;-66
2023/09/12 00:49:05;;;;;;;9.43;5.65;;;;;;;22.13;80.11;100717.53;5052311;28;20049;-61
2023/09/12 00:51:33;;;;;;;8.15;5.57;;;;;;;22.33;79.18;100712.44;5053260;28;20052;-62
2023/09/12 00:54:00;;;;;;;8.55;5.30;;;;;;;22.00;80.71;100718.25;5054097;28;20056;-65
2023/09/12 00:56:28;;;;;;;9.27;5.43;;;;;;;22.00;80.95;100716.22;5040363;28;20060;-61
2023/09/12 00:58:56;;;;;;;8.60;5.78;;;;;;;22.06;80.25;100709.06;5051039;28;20049;-61
2023/09/12 01:01:24;;;;;;;9.88;5.82;;;;;;;22.02;80.32;100713.84;5053166;28;20063;-65
2023/09/12 01:03:51;;;;;;;10.90;5.80;;;;;;;21.81;81.85;100713.69;5051154;28;20598;-65
2023/09/12 01:06:22;;;;;;;11.77;6.88;;;;;;;21.79;83.15;100715.28;5053259;28;20052;-65
2023/09/12 01:08:50;;;;;;;11.52;6.32;;;;;;;21.42;85.82;100720.94;5061210;28;20076;-61
2023/09/12 01:11:17;;;;;;;10.05;6.70;;;;;;;21.27;87.26;100721.19;5046505;28;20141;-61
2023/09/12 01:13:45;;;;;;;10.02;6.38;;;;;;;21.15;88.07;100716.66;5047466;28;20053;-65
2023/09/12 01:16:12;;;;;;;10.18;6.88;;;;;;;21.24;87.77;100711.53;5051916;28;20447;-61
2023/09/12 01:18:42;;;;;;;10.10;6.05;;;;;;;21.82;85.38;100692.88;5050507;28;20061;-60
2023/09/12 01:21:28;;;;;;;10.38;6.82;;;;;;;21.32;85.94;100706.81;5049212;28;20076;-65
2023/09/12 01:23:55;;;;;;;10.05;6.20;;;;;;;21.31;86.84;100700.41;5052235;28;20096;-60
2023/09/12 01:26:28;;;;;;;11.55;6.40;;;;;;;21.17;87.90;100691.84;5053384;28;20059;-65
2023/09/12 01:28:57;;;;;;;14.48;6.53;;;;;;;21.40;86.71;100698.09;5052470;28;20411;-61
2023/09/12 01:31:25;;;;;;;12.55;7.38;;;;;;;20.83;89.28;100701.47;5039096;28;20049;-64
2023/09/12 01:33:57;;;;;;;8.98;6.45;;;;;;;21.07;88.80;100710.19;5033052;28;20053;-65
2023/09/12 01:36:25;;;;;;;12.90;6.55;;;;;;;20.96;88.95;100714.00;5053396;28;20077;-61
2023/09/12 01:38:52;;;;;;;10.98;7.28;;;;;;;21.20;88.08;100719.91;5032161;28;20092;-62
2023/09/12 01:41:20;;;;;;;11.40;6.85;;;;;;;21.41;86.76;100726.94;5048441;28;20049;-62
2023/09/12 01:43:48;;;;;;;10.77;7.05;;;;;;;21.33;87.89;100722.44;5053243;28;20491;-65
2023/09/12 01:46:17;;;;;;;11.63;7.38;;;;;;;21.23;88.08;100718.34;5040666;28;20061;-60
2023/09/12 01:48:46;;;;;;;14.93;7.68;;;;;;;21.05;89.58;100712.56;5047125;28;20056;-66
2023/09/12 01:51:14;;;;;;;13.65;7.45;;;;;;;21.38;88.03;100714.47;5052642;28;20053;-65
2023/09/12 01:53:43;;;;;;;12.65;7.45;;;;;;;21.05;88.38;100706.97;5046626;28;20056;-65
2023/09/12 01:56:12;;;;;;;12.75;6.90;;;;;;;21.16;88.32;100715.47;5032603;28;20060;-66
2023/09/12 01:58:39;;;;;;;13.38;7.18;;;;;;;21.22;87.89;100713.91;5041255;28;20052;-65
2023/09/12 02:01:07;;;;;;;12.85;7.57;;;;;;;21.29;87.14;100711.19;5050486;28;20060;-65
2023/09/12 02:03:35;;;;;;;10.77;6.88;;;;;;;21.41;87.17;100710.91;5021354;28;20045;-65
2023/09/12 02:06:02;;;;;;;17.20;7.43;;;;;;;21.55;85.70;100719.44;5045950;28;20526;-66
2023/09/12 02:08:30;;;;;;;11.00;7.40;;;;;;;21.47;86.28;100719.75;5043442;28;20538;-65
2023/09/12 02:10:57;;;;;;;10.48;7.45;;;;;;;21.58;85.84;100718.69;5028461;28;20045;-65
2023/09/12 02:13:25;;;;;;;9.88;7.38;;;;;;;21.69;85.41;100718.78;5043876;28;20045;-66
2023/09/12 02:15:59;;;;;;;12.80;7.65;;;;;;;21.43;85.47;100705.72;5031284;28;20045;-66
2023/09/12 02:18:27;;;;;;;11.73;7.63;;;;;;;21.22;86.81;100711.13;5047997;28;20060;-65
2023/09/12 02:20:55;;;;;;;11.32;7.10;;;;;;;21.02;88.31;100710.53;5059169;28;20044;-66
2023/09/12 02:23:23;;;;;;;9.82;7.68;;;;;;;20.83;89.33;100719.09;5051416;28;20053;-66
2023/09/12 02:25:50;;;;;;;10.57;6.70;;;;;;;20.78;89.61;100705.41;5041907;28;20075;-65
2023/09/12 02:28:18;;;;;;;11.35;7.18;;;;;;;20.72;89.06;100706.94;5040062;28;20064;-66
2023/09/12 02:30:45;;;;;;;13.30;7.38;;;;;;;20.81;88.98;100712.25;5030669;28;20061;-65
2023/09/12 02:33:13;;;;;;;13.00;7.70;;;;;;;20.59;89.44;100716.78;5052695;28;20068;-66
2023/09/12 02:35:40;;;;;;;11.32;7.10;;;;;;;20.73;88.28;100721.75;5050191;28;20060;-65
2023/09/12 02:38:07;;;;;;;12.25;6.93;;;;;;;20.97;87.58;100710.03;5052127;28;20049;-66
2023/09/12 02:40:35;;;;;;;11.32;6.90;;;;;;;20.93;87.04;100715.59;5054492;28;20044;-65
2023/09/12 02:43:03;;;;;;;11.35;7.68;;;;;;;20.75;88.24;100720.19;5057061;28;20057;-66
2023/09/12 02:45:30;;;;;;;12.48;7.03;;;;;;;20.87;87.39;100703.13;5052098;28;20049;-65
2023/09/12 02:47:58;;;;;;;11.85;7.22;;;;;;;20.92;87.30;100701.97;5051092;28;20056;-67
2023/09/12 02:50:25;;;;;;;11.98;7.22;;;;;;;20.79;88.01;100707.03;5051010;28;20053;-66
2023/09/12 02:52:53;;;;;;;12.07;7.50;;;;;;;20.82;88.45;100700.66;5031140;28;20511;-65
2023/09/12 02:55:20;;;;;;;10.65;7.50;;;;;;;20.97;86.85;100698.84;5030939;28;20053;-66
2023/09/12 02:57:47;;;;;;;11.18;8.05;;;;;;;20.95;87.08;100698.41;5039411;28;20086;-66
2023/09/12 03:00:15;;;;;;;10.93;8.27;;;;;;;20.74;87.86;100703.75;5030477;28;20148;-64
2023/09/12 03:02:42;;;;;;;13.25;6.95;;;;;;;20.65;88.09;100712.47;5015057;28;20049;-65
2023/09/12 03:05:11;;;;;;;12.60;7.40;;;;;;;20.55;88.44;100698.34;5072711;28;20057;-64
2023/09/12 03:07:38;;;;;;;10.35;7.35;;;;;;;20.71;87.35;100694.13;5052259;28;20528;-65
2023/09/12 03:10:06;;;;;;;10.48;6.93;;;;;;;21.16;85.54;100698.66;5051783;28;20064;-66
2023/09/12 03:12:39;;;;;;;13.05;7.05;;;;;;;21.14;85.36;100699.06;5052114;28;20045;-65
2023/09/12 03:15:07;;;;;;;14.00;7.53;;;;;;;21.03;85.28;100706.53;5017651;28;20055;-67
2023/09/12 03:17:37;;;;;;;14.25;7.70;;;;;;;20.89;86.76;100705.53;5067460;28;20057;-65
2023/09/12 03:20:08;;;;;;;11.02;7.85;;;;;;;20.74;87.24;100712.16;5067244;28;20059;-65
2023/09/12 03:22:37;;;;;;;11.55;7.75;;;;;;;20.99;86.59;100710.50;5068147;28;20056;-65
2023/09/12 03:25:06;;;;;;;12.50;7.25;;;;;;;20.96;86.10;100711.22;5049875;28;20060;-65
2023/09/12 03:27:33;;;;;;;12.10;8.38;;;;;;;20.85;85.91;100715.91;5049561;28;20045;-65
2023/09/12 03:30:01;;;;;;;10.95;7.63;;;;;;;20.77;85.96;100722.59;5067125;28;20055;-66
2023/09/12 03:32:28;;;;;;;11.70;8.38;;;;;;;20.71;86.11;100724.91;5051424;28;20400;-66
2023/09/12 03:34:56;;;;;;;10.40;7.35;;;;;;;21.04;85.09;100719.34;5049720;28;20416;-65
2023/09/12 03:37:27;;;;;;;11.07;7.85;;;;;;;20.78;86.19;100725.00;5066988;28;20507;-65
2023/09/12 03:39:54;;;;;;;11.45;7.07;;;;;;;20.73;86.59;100725.34;5076651;28;20057;-66
2023/09/12 03:42:22;;;;;;;12.95;8.10;;;;;;;20.63;87.56;100720.44;5060304;28;20041;-65
2023/09/12 03:44:53;;;;;;;14.75;8.45;;;;;;;20.68;87.66;100731.28;5046592;28;20053;-66
2023/09/12 03:47:21;;;;;;;12.77;8.25;;;;;;;20.60;88.04;100732.41;5065078;28;20048;-66
2023/09/12 03:49:48;;;;;;;12.52;8.68;;;;;;;20.50;87.73;100735.88;5032003;28;20057;-65
2023/09/12 03:52:16;;;;;;;13.50;8.57;;;;;;;20.64;87.66;100738.03;5043740;28;20063;-66
2023/09/12 03:54:43;;;;;;;16.65;8.45;;;;;;;20.92;86.29;100736.38;5047558;28;20045;-66
2023/09/12 03:57:10;;;;;;;16.45;8.50;;;;;;;20.70;86.41;100740.13;5053863;28;20053;-65
2023/09/12 03:59:38;;;;;;;13.65;7.97;;;;;;;20.93;86.12;100752.00;5036868;28;20053;-65
2023/09/12 04:02:05;;;;;;;13.38;7.90;;;;;;;21.23;84.75;100741.53;5053017;28;20049;-65
2023/09/12 04:04:33;;;;;;;11.65;8.27;;;;;;;21.28;83.87;100740.41;5055141;28;20064;-66
2023/09/12 04:07:01;;;;;;;14.57;8.55;;;;;;;21.26;83.36;100734.38;5041047;28;20137;-65
2023/09/12 04:09:28;;;;;;;17.92;9.68;;;;;;;21.16;84.27;100727.50;5036304;28;20053;-65
2023/09/12 04:11:56;;;;;;;11.15;8.52;;;;;;;20.87;85.80;100719.13;5044031;28;20080;-66
2023/09/12 04:14:24;;;;;;;14.32;8.60;;;;;;;20.76;87.16;100730.19;5055274;28;20045;-65
2023/09/12 04:16:51;;;;;;;15.43;8.60;;;;;;;20.91;86.06;100723.56;5040055;28;20050;-65
2023/09/12 04:19:19;;;;;;;13.57;9.60;;;;;;;20.68;87.23;100722.06;5060688;28;20057;-65
2023/09/12 04:21:46;;;;;;;16.67;10.65;;;;;;;20.50;88.57;100723.84;5036287;28;20057;-65
2023/09/12 04:24:15;;;;;;;12.63;9.50;;;;;;;20.48;88.09;100734.63;5050984;28;20075;-65
2023/09/12 04:26:44;;;;;;;16.17;9.53;;;;;;;20.66;87.58;100735.66;5049495;28;20060;-65
2023/09/12 04:29:11;;;;;;;13.75;10.00;;;;;;;20.55;88.25;100737.50;5046152;28;20052;-65
2023/09/12 04:31:38;;;;;;;18.52;10.30;;;;;;;20.45;89.07;100743.78;5053804;28;20539;-66
2023/09/12 04:34:06;;;;;;;13.18;10.23;;;;;;;20.34;89.82;100748.41;5055474;28;20529;-66
2023/09/12 04:36:33;;;;;;;16.33;11.60;;;;;;;20.57;89.36;100746.34;5052077;28;20052;-66
2023/09/12 04:39:01;;;;;;;18.30;11.95;;;;;;;20.66;88.28;100744.84;5069617;28;20049;-66
2023/09/12 04:41:29;;;;;;;18.92;12.05;;;;;;;20.43;89.67;100746.16;5063231;28;20045;-66
2023/09/12 04:43:58;;;;;;;17.75;11.70;;;;;;;20.35;90.08;100766.78;5053800;28;20049;-67
2023/09/12 04:46:25;;;;;;;14.80;11.60;;;;;;;20.33;90.04;100772.00;5062407;28;20060;-66
2023/09/12 04:48:53;;;;;;;15.02;11.13;;;;;;;20.51;88.76;100764.63;5048490;28;20726;-65
2023/09/12 04:51:21;;;;;;;16.38;11.70;;;;;;;20.46;89.72;100767.75;5046776;28;20045;-66
2023/09/12 04:53:51;;;;;;;15.20;12.38;;;;;;;20.59;89.22;100764.34;5030125;28;20053;-65
2023/09/12 04:56:19;;;;;;;19.60;13.30;;;;;;;20.33;90.84;100769.19;5057937;28;20084;-66
2023/09/12 04:58:48;;;;;;;15.68;12.23;;;;;;;20.29;91.39;100754.34;5037611;28;20057;-66
2023/09/12 05:01:16;;;;;;;19.00;12.88;;;;;;;20.28;91.93;100752.72;5039343;28;20049;-65
2023/09/12 05:03:44;;;;;;;16.92;13.15;;;;;;;20.54;90.93;100738.72;5058624;28;20357;-66
2023/09/12 05:06:13;;;;;;;23.08;12.63;;;;;;;20.68;89.77;100742.47;5048393;28;20056;-67
2023/09/12 05:08:41;;;;;;;19.27;13.73;;;;;;;20.39;90.35;100734.91;5049411;28;20053;-66
2023/09/12 05:11:09;;;;;;;19.88;13.10;;;;;;;20.53;89.60;100742.69;5040567;28;20048;-67
2023/09/12 05:13:36;;;;;;;18.25;13.77;;;;;;;20.27;91.13;100757.53;5053612;28;20510;-63
2023/09/12 05:16:04;;;;;;;27.23;13.93;;;;;;;20.39;91.20;100762.88;5057752;28;20052;-62
2023/09/12 05:18:31;;;;;;;16.85;12.95;;;;;;;20.53;90.36;100762.28;5035162;28;20535;-61
2023/09/12 05:21:00;;;;;;;20.60;14.65;;;;;;;20.71;89.47;100771.72;5015381;28;20045;-63
2023/09/12 05:23:27;;;;;;;22.45;13.60;;;;;;;20.93;87.71;100774.41;5048182;28;20056;-62
2023/09/12 05:25:55;;;;;;;18.27;15.27;;;;;;;20.45;90.38;100782.97;5044617;28;20048;-62
2023/09/12 05:28:22;;;;;;;20.63;15.48;;;;;;;20.60;89.51;100770.75;5033076;28;20053;-63
2023/09/12 05:30:51;;;;;;;23.48;16.45;;;;;;;20.29;91.34;100773.91;5049055;28;20060;-62
2023/09/12 05:33:18;;;;;;;21.70;16.05;;;;;;;20.17;92.59;100772.16;5046804;28;20079;-61
2023/09/12 05:35:47;;;;;;;22.55;16.65;;;;;;;20.00;92.56;100776.25;5036110;28;20061;-62
2023/09/12 05:38:14;;;;;;;22.08;15.90;;;;;;;19.94;94.76;100777.75;5052512;28;20063;-61
2023/09/12 05:40:42;;;;;;;25.88;18.25;;;;;;;19.97;93.77;100782.59;5045370;28;20055;-62
2023/09/12 05:43:09;;;;;;;19.55;17.13;;;;;;;20.07;93.21;100778.34;5072063;28;20055;-61
2023/09/12 05:45:37;;;;;;;22.90;16.63;;;;;;;20.00;93.31;100769.84;5058375;28;20048;-64
2023/09/12 05:48:05;;;;;;;25.02;17.60;;;;;;;20.04;92.44;100777.13;5047742;28;20045;-61
2023/09/12 05:50:34;;;;;;;25.87;17.30;;;;;;;20.27;92.90;100779.91;5051953;28;20053;-67
2023/09/12 05:53:02;;;;;;;20.60;16.50;;;;;;;20.38;92.07;100775.25;5035743;28;20064;-65
2023/09/12 05:55:29;;;;;;;23.38;17.50;;;;;;;20.27;92.97;100776.28;5048149;28;20056;-65
2023/09/12 05:57:57;;;;;;;24.85;17.20;;;;;;;20.46;91.46;100781.75;5051249;28;20055;-68
2023/09/12 06:00:25;;;;;;;24.02;17.52;;;;;;;20.53;90.76;100779.06;5068944;28;20045;-65
2023/09/12 06:02:52;;;;;;;27.52;17.38;;;;;;;20.77;88.90;100778.59;5049525;28;20044;-66
2023/09/12 06:05:20;;;;;;;29.27;19.08;;;;;;;20.24;92.56;100785.44;5053050;28;20041;-67
2023/09/12 06:07:47;;;;;;;27.20;19.40;;;;;;;19.80;94.33;100783.13;5043965;28;20056;-67
2023/09/12 06:10:15;;;;;;;26.88;19.42;;;;;;;19.45;98.07;100796.47;5043789;28;20851;-68
2023/09/12 06:12:45;;;;;;;29.77;19.13;;;;;;;19.58;97.93;100805.47;5033494;28;20234;-66
2023/09/12 06:15:12;;;;;;;25.63;18.58;;;;;;;19.71;97.81;100796.53;5028584;28;20041;-65
2023/09/12 06:17:40;;;;;;;23.85;17.80;;;;;;;20.00;96.49;100797.81;5047509;28;20111;-64
2023/09/12 06:20:08;;;;;;;22.00;15.77;;;;;;;20.02;95.11;100798.25;5032678;28;20056;-65
2023/09/12 06:22:37;;;;;;;25.13;17.15;;;;;;;19.96;94.48;100797.75;5049781;28;20049;-66
2023/09/12 06:25:05;;;;;;;26.20;18.50;;;;;;;19.88;95.64;100796.03;5018203;28;20041;-66
2023/09/12 06:27:33;;;;;;;25.77;16.60;;;;;;;20.06;95.12;100797.13;5037984;28;20045;-69
2023/09/12 06:30:01;;;;;;;20.60;16.67;;;;;;;20.32;92.12;100792.75;5045901;28;20053;-68
2023/09/12 06:32:28;;;;;;;23.80;15.90;;;;;;;20.15;94.11;100799.66;5056892;28;21416;-68
2023/09/12 06:34:56;;;;;;;20.02;14.48;;;;;;;20.36;93.30;100800.03;5047144;28;20060;-68
2023/09/12 06:37:24;;;;;;;26.45;14.57;;;;;;;20.29;93.78;100797.13;5048817;28;20044;-67
2023/09/12 06:39:51;;;;;;;24.33;14.57;;;;;;;20.42;92.89;100800.47;5043709;28;20056;-69
2023/09/12 06:42:19;;;;;;;21.83;14.15;;;;;;;20.54;92.03;100783.50;5046294;28;20053;-67
2023/09/12 06:44:46;;;;;;;24.73;14.52;;;;;;;20.71;91.72;100783.69;5045372;28;20057;-67
2023/09/12 06:47:14;;;;;;;17.65;13.18;;;;;;;20.79;89.52;100785.44;5038848;28;20523;-70
2023/09/12 06:49:42;;;;;;;20.50;13.02;;;;;;;20.94;89.78;100786.38;5046954;28;20037;-67
2023/09/12 06:52:10;;;;;;;18.33;13.27;;;;;;;20.92;89.50;100792.38;5046255;28;20092;-68
2023/09/12 06:54:38;;;;;;;19.50;14.13;;;;;;;21.17;87.67;100792.72;5060171;28;20048;-68
2023/09/12 06:57:05;;;;;;;16.77;12.23;;;;;;;21.45;85.86;100783.81;5048791;28;20060;-68
2023/09/12 06:59:33;;;;;;;20.23;13.10;;;;;;;21.44;85.80;100776.59;5048911;28;20049;-68
2023/09/12 07:02:00;;;;;;;21.83;15.18;;;;;;;20.77;88.30;100784.19;5049160;28;20045;-68
2023/09/12 07:04:43;;;;;;;24.25;13.52;;;;;;;20.68;91.12;100794.84;5065245;28;20060;-70
2023/09/12 07:07:25;;;;;;;19.70;14.77;;;;;;;20.90;87.80;100789.16;5046307;28;20052;-70
2023/09/12 07:09:55;;;;;;;21.42;14.98;;;;;;;20.52;89.55;100799.84;5059113;28;20049;-69
2023/09/12 07:12:42;;;;;;;24.50;17.33;;;;;;;19.76;94.99;100809.38;5046763;28;20055;-69
2023/09/12 07:15:10;;;;;;;23.90;15.20;;;;;;;19.72;96.55;100812.09;5047364;28;20044;-69
2023/09/12 07:17:37;;;;;;;24.92;15.20;;;;;;;20.31;93.45;100807.94;5042926;28;20049;-69
2023/09/12 07:20:11;;;;;;;27.67;15.30;;;;;;;20.40;91.54;100809.25;5060423;28;20057;-67
2023/09/12 07:22:40;;;;;;;25.48;15.13;;;;;;;20.17;92.22;100810.50;5049565;28;20243;-68
2023/09/12 07:25:09;;;;;;;23.80;15.38;;;;;;;20.06;93.65;100810.28;5041307;28;20097;-68
2023/09/12 07:27:36;;;;;;;24.53;15.47;;;;;;;20.22;93.12;100815.78;5041403;28;20049;-68
2023/09/12 07:30:05;;;;;;;21.83;14.02;;;;;;;20.20;93.10;100812.53;5040576;28;20444;-68
2023/09/12 07:32:33;;;;;;;22.13;14.73;;;;;;;20.26;92.90;100816.66;5056733;28;20520;-68
2023/09/12 07:35:01;;;;;;;20.38;13.40;;;;;;;20.89;89.35;100811.94;5045421;28;20054;-68
2023/09/12 07:37:28;;;;;;;20.00;14.43;;;;;;;20.35;90.89;100826.38;5040912;28;20831;-68
2023/09/12 07:39:56;;;;;;;18.23;14.13;;;;;;;20.34;91.46;100818.34;5050734;28;20049;-69
2023/09/12 07:42:24;;;;;;;20.95;14.45;;;;;;;20.17;92.36;100828.88;5055492;28;20037;-67
2023/09/12 07:44:51;;;;;;;25.70;14.73;;;;;;;20.17;92.53;100816.09;5050731;28;20049;-68
2023/09/12 07:47:19;;;;;;;22.00;12.82;;;;;;;20.82;90.60;100812.66;5049178;28;20056;-69
2023/09/12 07:49:53;;;;;;;21.15;14.15;;;;;;;20.62;88.70;100822.41;5049506;28;20040;-68
2023/09/12 07:52:21;;;;;;;23.23;14.95;;;;;;;20.29;90.70;100827.88;5043499;28;20056;-69
2023/09/12 07:54:49;;;;;;;25.13;16.60;;;;;;;20.15;92.20;100817.22;5044386;28;20048;-70
2023/09/12 07:57:16;;;;;;;21.90;15.98;;;;;;;20.23;91.89;100818.19;5039756;28;20055;-69
2023/09/12 07:59:44;;;;;;;23.85;14.98;;;;;;;20.31;92.38;100822.69;5049122;28;20044;-67
2023/09/12 08:02:12;;;;;;;20.40;12.75;;;;;;;20.42;92.46;100820.06;5045001;28;20053;-67
2023/09/12 08:04:40;;;;;;;27.65;15.60;;;;;;;20.19;92.45;100820.13;5036499;28;20554;-67
2023/09/12 08:07:07;;;;;;;24.92;16.27;;;;;;;20.30;91.82;100818.31;5045907;28;20640;-66
2023/09/12 08:09:51;;;;;;;22.08;14.77;;;;;;;20.60;91.02;100818.34;5042825;28;20053;-69
2023/09/12 08:12:20;;;;;;;31.42;15.45;;;;;;;20.58;90.23;100820.72;5046743;28;20053;-67
2023/09/12 08:14:48;;;;;;;19.90;15.48;;;;;;;20.38;91.46;100822.03;5044200;28;20045;-69
2023/09/12 08:17:15;;;;;;;23.00;16.85;;;;;;;20.34;91.68;100824.78;5046296;28;20049;-70
2023/09/12 08:19:43;;;;;;;25.27;15.85;;;;;;;20.36;92.52;100836.41;5046492;28;20041;-68
2023/09/12 08:22:14;;;;;;;23.15;14.63;;;;;;;20.69;90.59;100835.66;5049200;28;20049;-70
2023/09/12 08:24:41;;;;;;;27.02;14.05;;;;;;;20.87;88.49;100840.31;5045334;28;20045;-70
2023/09/12 08:27:09;;;;;;;24.48;14.80;;;;;;;20.90;87.67;100838.78;5045425;28;20056;-70
2023/09/12 08:29:38;;;;;;;23.15;14.93;;;;;;;21.08;86.23;100835.03;5047868;28;20041;-70
2023/09/12 08:32:05;;;;;;;20.90;13.93;;;;;;;20.66;88.93;100836.44;5041719;28;20045;-71
2023/09/12 08:34:33;;;;;;;21.20;14.50;;;;;;;20.54;88.96;100831.84;5045962;28;20041;-69
2023/09/12 08:37:01;;;;;;;24.35;13.80;;;;;;;20.60;90.29;100833.16;5041977;28;20056;-70
2023/09/12 08:39:41;;;;;;;24.20;14.23;;;;;;;20.51;90.48;100840.19;5053894;28;20050;-69
2023/09/12 08:42:16;;;;;;;18.50;14.25;;;;;;;20.68;88.89;100840.47;5045212;28;20053;-69
2023/09/12 08:44:44;;;;;;;24.27;14.05;;;;;;;20.39;91.22;100837.63;5051066;28;20053;-70
2023/09/12 08:47:12;;;;;;;19.42;13.48;;;;;;;20.78;88.52;100845.38;5044199;28;20041;-69
2023/09/12 08:49:42;;;;;;;22.50;13.60;;;;;;;20.49;89.40;100843.38;5042748;28;20057;-70
2023/09/12 08:52:09;;;;;;;24.45;12.40;;;;;;;20.97;88.74;100839.66;5047967;28;20063;-69
2023/09/12 08:54:37;;;;;;;22.02;12.25;;;;;;;21.41;85.33;100837.00;5043724;28;20423;-69
2023/09/12 08:57:05;;;;;;;21.73;12.68;;;;;;;21.35;84.57;100834.94;5042546;28;20049;-70
2023/09/12 08:59:33;;;;;;;20.23;12.55;;;;;;;20.97;84.62;100836.84;5032532;28;20065;-67
2023/09/12 09:02:02;;;;;;;18.38;11.85;;;;;;;20.99;86.11;100836.53;5033013;28;20062;-69
2023/09/12 09:04:31;;;;;;;34.97;12.68;;;;;;;20.97;85.81;100841.66;5039426;28;20055;-69
2023/09/12 09:06:59;;;;;;;34.17;11.93;;;;;;;20.87;86.58;100840.31;5021550;28;20041;-69
2023/09/12 09:09:28;;;;;;;26.25;12.55;;;;;;;21.02;86.21;100841.34;5047820;28;20056;-71
2023/09/12 09:11:56;;;;;;;21.50;12.93;;;;;;;20.95;85.98;100841.22;5033033;28;20076;-70
2023/09/12 09:14:24;;;;;;;21.02;12.38;;;;;;;20.91;86.07;100838.38;5043644;28;20049;-70
2023/09/12 09:16:51;;;;;;;17.80;10.40;;;;;;;21.24;86.06;100846.03;5044717;28;20045;-70
2023/09/12 09:19:19;;;;;;;23.15;11.90;;;;;;;21.24;85.00;100835.63;5047289;28;20582;-70
2023/09/12 09:21:47;;;;;;;19.50;11.18;;;;;;;21.27;84.27;100843.28;5045765;28;20041;-70
2023/09/12 09:24:17;;;;;;;20.67;10.90;;;;;;;21.56;83.91;100840.78;5044694;28;20041;-71
2023/09/12 09:26:47;;;;;;;22.05;11.93;;;;;;;21.38;83.50;100840.59;5062208;28;20131;-68
2023/09/12 09:29:16;;;;;;;26.60;12.80;;;;;;;21.13;85.53;100840.28;5043777;28;20040;-67
2023/09/12 09:31:45;;;;;;;22.52;13.88;;;;;;;20.08;93.30;100839.50;5046338;28;20045;-67
2023/09/12 09:34:16;;;;;;;23.40;14.23;;;;;;;20.19;93.97;100844.50;5043351;28;20049;-71
2023/09/12 09:36:51;;;;;;;27.05;14.35;;;;;;;20.45;93.11;100836.13;5054929;28;20046;-70
2023/09/12 09:39:21;;;;;;;23.30;13.90;;;;;;;20.61;93.11;100840.34;5039506;28;20048;-70
2023/09/12 09:42:00;;;;;;;17.75;12.77;;;;;;;20.66;91.86;100848.41;5041765;28;20046;-70
2023/09/12 09:44:30;;;;;;;21.50;14.25;;;;;;;20.87;92.43;100853.53;5049853;28;20049;-70
2023/09/12 09:47:02;;;;;;;19.48;12.43;;;;;;;20.83;92.46;100859.09;5070387;28;20048;-71
2023/09/12 09:49:34;;;;;;;21.52;12.80;;;;;;;21.35;89.96;100865.78;5040686;28;20045;-74
2023/09/12 09:52:05;;;;;;;22.38;13.48;;;;;;;21.38;89.00;100874.22;5043292;28;20045;-71
2023/09/12 09:54:33;;;;;;;28.33;15.32;;;;;;;21.22;90.90;100891.25;5036347;28;20057;-68
2023/09/12 09:57:06;;;;;;;28.15;14.07;;;;;;;21.45;90.28;100898.72;5037310;28;20103;-69
2023/09/12 09:59:33;;;;;;;27.92;15.25;;;;;;;21.56;89.70;100900.47;5060450;28;20701;-70
2023/09/12 10:02:03;;;;;;;22.65;14.80;;;;;;;21.59;89.31;100902.50;5041761;28;20055;-71
2023/09/12 10:04:31;;;;;;;30.52;15.55;;;;;;;21.09;91.24;100908.69;5043974;28;20068;-68
2023/09/12 10:07:12;;;;;;;24.85;14.25;;;;;;;21.15;92.66;100905.16;5042514;28;20056;-70
2023/09/12 10:09:40;;;;;;;23.88;14.95;;;;;;;21.07;93.79;100911.03;5043136;28;20045;-68
2023/09/12 10:12:08;;;;;;;21.02;15.02;;;;;;;20.97;94.05;100914.47;5045471;28;20044;-68
2023/09/12 10:14:39;;;;;;;24.75;16.15;;;;;;;20.90;96.00;100912.38;5038494;28;20076;-69
2023/09/12 10:17:07;;;;;;;23.35;15.13;;;;;;;21.00;95.18;100908.97;5039134;28;20052;-71
2023/09/12 10:19:45;;;;;;;25.45;15.88;;;;;;;20.50;99.28;100908.56;5039369;28;20044;-69
2023/09/12 10:22:21;;;;;;;27.63;16.67;;;;;;;20.21;100.00;100914.88;5051531;28;20404;-69
2023/09/12 10:24:49;;;;;;;23.73;16.05;;;;;;;20.66;100.00;100914.81;5040458;28;20048;-68
2023/09/12 10:27:19;;;;;;;24.02;14.73;;;;;;;21.07;97.42;100911.84;5043167;28;20049;-68
2023/09/12 10:29:48;;;;;;;19.98;15.15;;;;;;;20.82;97.52;100921.03;5037648;28;20064;-70
2023/09/12 10:32:17;;;;;;;23.77;15.48;;;;;;;20.67;98.71;100914.44;5046361;28;20529;-69
2023/09/12 10:34:45;;;;;;;26.17;16.38;;;;;;;20.86;99.04;100907.91;5046286;28;20045;-69
2023/09/12 10:37:15;;;;;;;22.25;13.70;;;;;;;19.85;100.00;100905.00;5042530;28;20496;-68
2023/09/12 10:39:45;;;;;;;19.63;14.15;;;;;;;19.84;100.00;100909.75;5039548;28;20041;-68
2023/09/12 10:42:13;;;;;;;25.08;16.42;;;;;;;19.71;100.00;100905.53;5046960;28;20057;-67
2023/09/12 10:44:40;;;;;;;26.83;18.45;;;;;;;19.54;100.00;100894.81;5042671;28;20072;-69
2023/09/12 10:47:10;;;;;;;;;;;;;;;19.43;100.00;100891.00;5037695;28;20045;-67
2023/09/12 10:49:38;;;;;;;22.30;13.90;;;;;;;19.70;100.00;100894.72;5037533;28;20586;-69
2023/09/12 10:52:05;;;;;;;25.48;16.08;;;;;;;19.77;100.00;100884.47;5050331;28;20797;-66
2023/09/12 10:54:40;;;;;;;26.55;20.23;;;;;;;19.56;100.00;100886.84;5035162;28;20057;-66
2023/09/12 10:57:13;;;;;;;22.98;15.50;;;;;;;19.97;100.00;100877.66;5041855;28;20049;-69
2023/09/12 10:59:59;;;;;;;23.55;15.00;;;;;;;19.70;100.00;100877.97;5037664;28;20049;-68
2023/09/12 11:02:35;;;;;;;20.85;12.60;;;;;;;19.55;100.00;100882.47;5043121;28;20057;-70
2023/09/12 11:05:28;;;;;;;28.60;20.42;;;;;;;19.56;100.00;100884.06;5043625;28;20057;-68
2023/09/12 11:08:00;;;;;;;14.50;9.25;;;;;;;19.37;100.00;100886.09;5040992;28;20052;-68
2023/09/12 11:10:28;;;;;;;11.48;7.32;;;;;;;19.11;100.00;100881.13;5054661;28;20690;-68
2023/09/12 11:12:59;;;;;;;14.25;6.88;;;;;;;19.05;100.00;100882.59;5045276;28;20052;-68
2023/09/12 11:15:31;;;;;;;11.85;6.93;;;;;;;19.01;100.00;100884.50;5037855;28;20057;-67
2023/09/12 11:18:00;;;;;;;9.88;6.38;;;;;;;18.99;100.00;100890.44;5043421;28;20053;-66
2023/09/12 11:20:52;;;;;;;9.23;5.65;;;;;;;18.93;100.00;100897.47;5040901;28;20061;-71